Main page
METAR-TAF:

METAR-TAF

Airports :

Náměšť nad Oslavou, Czech Republic

latitude: 49-09-57N, longitude: 16-07-30E, elevation: 472 m

Current weather observation

The report was made 1 hour and 7 minutes ago, at 18:00 UTC
Wind 12 kt from the West/Northwest
Temperature 10°C
Humidity 87%
Pressure 1027 hPa
Visibility 10 km or more
no clouds below 1500 m and no cumulonimbus

METAR: LKNA 131800Z 29012KT CAVOK 10/08 Q1027 NOSIG RMK BLU BLU

Time: 20:07 (19:07 UTC)

Forecast

The report was made 2 hours and 7 minutes ago, at 17:00 UTC
Forecast valid from 13 at 18 UTC to 14 at 18 UTC
Wind 14 kt from the Northwest
Visibility: 5000 m
mist
Becoming
from 13 at 20 UTC to 13 at 22 UTC
Wind 8 kt from the Northwest
Visibility 10 km or more
no clouds below 1500 m and no cumulonimbus

TAF: LKNA 131700Z 1318/1418 32014KT 5000 BR NSC BECMG 1320/1322 32008KT CAVOK

Weather observations and forecasts of more than 4000 airports (METAR and TAF reports).

The available stations are represented by yellow and red dots on the map.

Hover mouse over dot to see the name of the station.

Then click to see weather observations and forecasts.

To change the map : click on the green buttons with a black cross to zoom in, on the green button with a dash to zoom out, or on the green arrows for adjacent maps.


METAR-TAF: